createdAt,value
2017-07-30T00:02:22.853Z,82.46
2017-07-30T00:04:50.591Z,82.00
2017-07-30T00:07:18.367Z,81.98
2017-07-30T00:09:46.071Z,82.16
2017-07-30T00:12:13.837Z,82.68
2017-07-30T00:14:41.652Z,82.96
2017-07-30T00:17:09.347Z,82.88
2017-07-30T00:19:37.129Z,83.10
2017-07-30T00:22:04.838Z,83.40
2017-07-30T00:24:32.552Z,83.31
2017-07-30T00:27:00.382Z,82.74
2017-07-30T00:29:28.074Z,82.59
2017-07-30T00:31:55.848Z,83.19
2017-07-30T00:34:23.649Z,83.39
2017-07-30T00:36:51.366Z,83.75
2017-07-30T00:39:20.007Z,83.37
2017-07-30T00:41:47.735Z,84.10
2017-07-30T00:44:15.516Z,85.29
2017-07-30T00:46:43.396Z,84.47
2017-07-30T00:49:11.160Z,83.97
2017-07-30T00:51:38.831Z,83.98
2017-07-30T00:54:06.553Z,83.89
2017-07-30T00:56:34.292Z,83.62
2017-07-30T00:59:02.080Z,83.69
2017-07-30T01:01:29.797Z,83.91
2017-07-30T01:03:57.487Z,83.86
2017-07-30T01:06:25.238Z,83.75
2017-07-30T01:08:54.193Z,83.92
2017-07-30T01:11:21.949Z,84.77
2017-07-30T01:13:49.714Z,83.66
2017-07-30T01:16:17.529Z,83.35
2017-07-30T01:18:45.229Z,83.44
2017-07-30T01:21:13.980Z,83.99
2017-07-30T01:23:41.813Z,84.61
2017-07-30T01:26:09.507Z,85.02
2017-07-30T01:28:38.992Z,85.13
2017-07-30T01:31:07.167Z,85.66
2017-07-30T01:33:34.873Z,85.36
2017-07-30T01:36:02.558Z,85.08
2017-07-30T01:38:30.356Z,85.50
2017-07-30T01:40:58.083Z,86.24
2017-07-30T01:43:25.812Z,86.71
2017-07-30T01:45:53.710Z,85.78
2017-07-30T01:48:21.430Z,86.63
2017-07-30T01:50:49.196Z,85.77
2017-07-30T01:53:16.995Z,84.49
2017-07-30T01:55:45.494Z,84.73
2017-07-30T01:58:13.219Z,85.07
2017-07-30T02:00:40.989Z,84.63
2017-07-30T02:03:08.754Z,84.77
2017-07-30T02:05:36.460Z,84.88
2017-07-30T02:08:04.480Z,85.75
2017-07-30T02:10:32.176Z,86.25
2017-07-30T02:12:59.881Z,86.08
2017-07-30T02:15:27.650Z,86.07
2017-07-30T02:17:55.359Z,85.96
2017-07-30T02:20:23.159Z,86.06
2017-07-30T02:22:50.892Z,87.00
2017-07-30T02:25:18.638Z,87.73
2017-07-30T02:27:46.375Z,88.19
2017-07-30T02:30:14.169Z,88.81
2017-07-30T02:32:41.886Z,88.04
2017-07-30T02:35:09.636Z,87.76
2017-07-30T02:37:37.390Z,86.92
2017-07-30T02:40:05.080Z,86.52
2017-07-30T02:42:32.820Z,86.57
2017-07-30T02:45:01.546Z,85.95
2017-07-30T02:47:29.259Z,86.63
2017-07-30T02:49:57.035Z,86.59
2017-07-30T02:52:24.751Z,86.74
2017-07-30T02:54:52.515Z,86.73
2017-07-30T02:57:20.251Z,86.19
2017-07-30T02:59:48.028Z,86.33
2017-07-30T03:02:15.728Z,86.79
2017-07-30T03:04:43.416Z,86.63
2017-07-30T03:07:11.176Z,86.61
2017-07-30T03:09:39.167Z,86.18
2017-07-30T03:12:06.881Z,85.92
2017-07-30T03:14:34.577Z,85.79
2017-07-30T03:17:02.362Z,86.26
2017-07-30T03:19:30.071Z,85.38
2017-07-30T03:21:57.860Z,85.80
2017-07-30T03:24:25.630Z,86.13
2017-07-30T03:26:53.345Z,85.68
2017-07-30T03:29:21.051Z,86.01
2017-07-30T03:31:48.824Z,86.03
2017-07-30T03:34:16.540Z,87.17
2017-07-30T03:36:44.272Z,88.10
2017-07-30T03:39:12.002Z,88.23
2017-07-30T03:41:39.763Z,86.97
2017-07-30T03:44:07.489Z,86.17
2017-07-30T03:46:35.288Z,85.73
2017-07-30T03:49:04.112Z,86.25
2017-07-30T03:51:31.834Z,86.77
2017-07-30T03:53:59.518Z,86.68
2017-07-30T03:56:27.269Z,87.21
2017-07-30T03:58:54.998Z,87.07
2017-07-30T04:01:22.882Z,86.92
2017-07-30T04:03:50.587Z,86.46
2017-07-30T04:06:18.286Z,86.92
2017-07-30T04:08:46.171Z,87.97
2017-07-30T04:11:13.957Z,87.59
2017-07-30T04:13:41.718Z,88.22
2017-07-30T04:16:09.410Z,88.27
2017-07-30T04:18:37.093Z,87.81
2017-07-30T04:21:04.830Z,87.53
2017-07-30T04:23:32.547Z,87.91
2017-07-30T04:26:00.252Z,87.74
2017-07-30T04:28:28.038Z,87.55
2017-07-30T04:30:55.779Z,87.21
2017-07-30T04:33:23.481Z,86.88
2017-07-30T04:35:51.193Z,86.77
2017-07-30T04:38:18.894Z,86.88
2017-07-30T04:40:46.665Z,87.13
2017-07-30T04:43:14.375Z,87.13
2017-07-30T04:45:42.253Z,86.54
2017-07-30T04:48:10.059Z,86.53
2017-07-30T04:50:37.813Z,86.51
2017-07-30T04:53:05.563Z,86.69
2017-07-30T04:55:33.327Z,86.48
2017-07-30T04:58:01.028Z,86.74
2017-07-30T05:00:28.809Z,86.05
2017-07-30T05:02:56.688Z,84.94
2017-07-30T05:05:24.373Z,84.57
2017-07-30T05:07:52.220Z,84.30
2017-07-30T05:10:20.080Z,83.89
2017-07-30T05:12:47.769Z,82.79
2017-07-30T05:15:15.444Z,82.63
2017-07-30T05:17:43.195Z,83.60
2017-07-30T05:20:10.894Z,83.44
2017-07-30T05:22:38.659Z,83.50
2017-07-30T05:25:06.513Z,82.90
2017-07-30T05:27:34.246Z,81.98
2017-07-30T05:30:02.023Z,80.85
2017-07-30T05:32:29.803Z,79.74
2017-07-30T05:34:57.548Z,78.88
2017-07-30T05:37:25.333Z,78.00
2017-07-30T05:39:53.050Z,79.81
2017-07-30T05:42:20.820Z,80.24
2017-07-30T05:44:48.623Z,79.82
2017-07-30T05:47:16.434Z,79.30
2017-07-30T05:49:44.314Z,79.20
2017-07-30T05:52:12.072Z,79.45
2017-07-30T05:54:39.864Z,79.02
2017-07-30T05:57:07.617Z,76.99
2017-07-30T05:59:35.400Z,77.07
2017-07-30T06:02:03.258Z,75.63
2017-07-30T06:04:30.980Z,75.97
2017-07-30T06:06:58.760Z,77.28
2017-07-30T06:09:26.571Z,76.93
2017-07-30T06:11:54.284Z,77.01
2017-07-30T06:14:22.147Z,77.14
2017-07-30T06:16:49.899Z,77.98
2017-07-30T06:19:17.699Z,77.88
2017-07-30T06:21:45.463Z,76.37
2017-07-30T06:24:13.272Z,75.90
2017-07-30T06:26:41.040Z,73.63
2017-07-30T06:29:09.122Z,71.78
2017-07-30T06:31:36.982Z,70.64
2017-07-30T06:34:04.700Z,72.32
2017-07-30T06:36:32.532Z,71.20
2017-07-30T06:39:00.232Z,72.34
2017-07-30T06:41:28.050Z,70.75
2017-07-30T06:43:55.747Z,70.97
2017-07-30T06:46:23.895Z,70.54
2017-07-30T06:48:51.899Z,71.03
2017-07-30T06:51:19.637Z,70.69
2017-07-30T06:53:47.454Z,70.82
2017-07-30T06:56:15.199Z,71.77
2017-07-30T06:58:43.007Z,70.83
2017-07-30T07:01:11.829Z,69.01
2017-07-30T07:03:39.582Z,67.18
2017-07-30T07:06:07.762Z,68.96
2017-07-30T07:08:35.476Z,68.78
2017-07-30T07:11:03.205Z,67.86
2017-07-30T07:13:30.975Z,64.32
2017-07-30T07:15:58.728Z,65.07
2017-07-30T07:18:26.535Z,62.69
2017-07-30T07:20:54.304Z,62.69
2017-07-30T07:23:22.206Z,60.72
2017-07-30T07:25:50.245Z,59.96
2017-07-30T07:28:18.069Z,63.42
2017-07-30T07:30:45.960Z,65.09
2017-07-30T07:33:13.710Z,66.27
2017-07-30T07:35:41.506Z,67.59
2017-07-30T07:38:09.283Z,68.86
2017-07-30T07:40:37.091Z,68.56
2017-07-30T07:43:04.874Z,67.66
2017-07-30T07:45:32.568Z,66.57
2017-07-30T07:48:00.749Z,65.90
2017-07-30T07:50:28.503Z,63.26
2017-07-30T07:52:56.239Z,64.37
2017-07-30T07:55:24.151Z,64.35
2017-07-30T07:57:51.947Z,63.68
2017-07-30T08:00:19.747Z,64.80
2017-07-30T08:02:47.554Z,64.13
2017-07-30T08:05:15.594Z,62.74
2017-07-30T08:07:43.394Z,62.48
2017-07-30T08:10:11.117Z,63.39
2017-07-30T08:12:38.933Z,62.99
2017-07-30T08:15:06.741Z,63.56
2017-07-30T08:17:34.538Z,63.38
2017-07-30T08:20:02.412Z,62.47
2017-07-30T08:22:30.307Z,60.81
2017-07-30T08:24:58.056Z,59.64
2017-07-30T08:27:25.861Z,59.60
2017-07-30T08:29:53.730Z,59.33
2017-07-30T08:32:21.632Z,60.79
2017-07-30T08:34:49.345Z,60.32
2017-07-30T08:37:17.123Z,60.26
2017-07-30T08:39:44.909Z,60.03
2017-07-30T08:42:12.730Z,60.81
2017-07-30T08:44:40.557Z,61.37
2017-07-30T08:47:08.335Z,59.51
2017-07-30T08:49:36.063Z,59.55
2017-07-30T08:52:03.922Z,59.19
2017-07-30T08:54:31.671Z,59.80
2017-07-30T08:56:59.479Z,59.07
2017-07-30T08:59:27.199Z,59.25
2017-07-30T09:01:54.961Z,59.04
2017-07-30T09:04:22.718Z,59.33
2017-07-30T09:06:50.569Z,59.17
2017-07-30T09:09:18.307Z,58.39
2017-07-30T09:11:46.055Z,58.06
2017-07-30T09:14:13.804Z,57.72
2017-07-30T09:16:41.586Z,56.59
2017-07-30T09:19:09.414Z,55.80
2017-07-30T09:21:37.105Z,54.91
2017-07-30T09:24:04.891Z,55.91
2017-07-30T09:26:32.650Z,58.13
2017-07-30T09:29:00.419Z,57.88
2017-07-30T09:31:28.323Z,58.67
2017-07-30T09:33:56.059Z,58.58
2017-07-30T09:36:23.874Z,57.04
2017-07-30T09:38:51.631Z,58.86
2017-07-30T09:41:19.472Z,58.96
2017-07-30T09:43:47.251Z,61.02
2017-07-30T09:46:15.142Z,61.45
2017-07-30T09:48:42.887Z,61.31
2017-07-30T09:51:10.987Z,60.56
2017-07-30T09:53:38.739Z,62.12
2017-07-30T09:56:06.481Z,61.35
2017-07-30T09:58:34.282Z,60.31
2017-07-30T10:01:02.116Z,59.16
2017-07-30T10:03:29.986Z,58.64
2017-07-30T10:05:58.399Z,57.84
2017-07-30T10:08:26.109Z,58.27
2017-07-30T10:10:53.876Z,58.11
2017-07-30T10:13:21.630Z,58.85
2017-07-30T10:15:49.461Z,59.74
2017-07-30T10:18:17.226Z,60.17
2017-07-30T10:20:44.974Z,61.68
2017-07-30T10:23:12.939Z,64.39
2017-07-30T10:25:40.728Z,65.77
2017-07-30T10:28:08.507Z,65.61
2017-07-30T10:30:36.296Z,63.77
2017-07-30T10:33:04.188Z,64.71
2017-07-30T10:35:31.882Z,61.88
2017-07-30T10:37:59.584Z,63.54
2017-07-30T10:40:27.367Z,63.36
2017-07-30T10:42:55.154Z,62.03
2017-07-30T10:45:22.873Z,64.72
2017-07-30T10:47:50.573Z,63.51
2017-07-30T10:50:18.385Z,64.62
2017-07-30T10:52:46.110Z,69.58
2017-07-30T10:55:13.884Z,68.89
2017-07-30T10:57:41.811Z,70.85
2017-07-30T11:00:10.502Z,71.41
2017-07-30T11:02:38.247Z,71.40
2017-07-30T11:05:05.978Z,70.97
2017-07-30T11:07:33.775Z,69.37
2017-07-30T11:10:02.572Z,69.43
2017-07-30T11:12:30.295Z,69.38
2017-07-30T11:14:58.074Z,69.36
2017-07-30T11:17:25.854Z,68.58
2017-07-30T11:19:53.622Z,66.98
2017-07-30T11:22:21.332Z,64.77
2017-07-30T11:24:49.022Z,59.11
2017-07-30T11:27:16.836Z,58.69
2017-07-30T11:29:44.592Z,62.54
2017-07-30T11:32:13.273Z,58.00
2017-07-30T11:34:41.128Z,54.53
2017-07-30T11:37:08.906Z,56.58
2017-07-30T11:39:36.622Z,60.08
2017-07-30T11:42:04.344Z,60.73
2017-07-30T11:44:32.190Z,61.92
2017-07-30T11:46:59.884Z,61.04
2017-07-30T11:49:27.628Z,61.96
2017-07-30T11:51:55.428Z,61.54
2017-07-30T11:54:23.123Z,60.81
2017-07-30T11:56:50.889Z,61.25
2017-07-30T11:59:18.689Z,62.00
2017-07-30T12:01:46.798Z,61.86
2017-07-30T12:04:14.500Z,63.62
2017-07-30T12:06:42.198Z,63.03
2017-07-30T12:09:09.986Z,57.80
2017-07-30T12:11:37.686Z,57.54
2017-07-30T12:14:05.461Z,57.92
2017-07-30T12:16:33.182Z,57.38
2017-07-30T12:19:01.111Z,58.29
2017-07-30T12:21:28.852Z,58.17
2017-07-30T12:23:56.581Z,57.31
2017-07-30T12:26:24.350Z,57.99
2017-07-30T12:28:52.090Z,58.05
2017-07-30T12:31:19.793Z,58.44
2017-07-30T12:33:47.609Z,58.60
2017-07-30T12:36:15.340Z,59.17
2017-07-30T12:38:43.071Z,58.75
2017-07-30T12:41:11.581Z,59.32
2017-07-30T12:43:39.382Z,60.10
2017-07-30T12:46:07.143Z,60.81
2017-07-30T12:48:35.218Z,61.33
2017-07-30T12:51:03.277Z,59.98
2017-07-30T12:53:31.052Z,60.77
2017-07-30T12:55:58.878Z,62.15
2017-07-30T12:58:26.656Z,61.68
2017-07-30T13:00:54.458Z,61.52
2017-07-30T13:03:22.405Z,62.04
2017-07-30T13:05:50.134Z,62.12
2017-07-30T13:08:17.862Z,61.76
2017-07-30T13:10:45.727Z,61.52
2017-07-30T13:13:13.527Z,63.03
2017-07-30T13:15:42.560Z,62.54
2017-07-30T13:18:10.420Z,62.65
2017-07-30T13:20:39.120Z,63.08
2017-07-30T13:23:06.875Z,64.09
2017-07-30T13:25:34.590Z,64.11
2017-07-30T13:28:03.428Z,64.59
2017-07-30T13:30:31.245Z,64.17
2017-07-30T13:32:59.035Z,64.53
2017-07-30T13:35:26.792Z,65.43
2017-07-30T13:37:54.574Z,65.35
2017-07-30T13:40:22.363Z,65.22
2017-07-30T13:42:50.145Z,65.47
2017-07-30T13:45:17.911Z,65.40
2017-07-30T13:47:45.627Z,65.79
2017-07-30T13:50:13.429Z,66.39
2017-07-30T13:52:42.193Z,67.31
2017-07-30T13:55:10.347Z,66.80
2017-07-30T13:57:38.250Z,66.72
2017-07-30T14:00:06.090Z,66.70
2017-07-30T14:02:33.907Z,67.33
2017-07-30T14:05:01.737Z,67.83
2017-07-30T14:07:29.712Z,67.20
2017-07-30T14:09:57.442Z,67.49
2017-07-30T14:12:25.195Z,67.45
2017-07-30T14:14:53.013Z,67.24
2017-07-30T14:17:20.731Z,68.40
2017-07-30T14:19:48.557Z,67.46
2017-07-30T14:22:16.353Z,69.06
2017-07-30T14:24:44.092Z,68.90
2017-07-30T14:27:11.820Z,69.34
2017-07-30T14:29:39.604Z,70.31
2017-07-30T14:32:07.318Z,72.27
2017-07-30T14:34:35.074Z,71.57
2017-07-30T14:37:02.937Z,71.31
2017-07-30T14:39:30.664Z,70.51
2017-07-30T14:41:58.404Z,69.42
2017-07-30T14:44:26.228Z,69.02
2017-07-30T14:46:54.082Z,69.77
2017-07-30T14:49:21.806Z,70.33
2017-07-30T14:51:49.588Z,71.04
2017-07-30T14:54:17.408Z,70.88
2017-07-30T14:56:45.283Z,70.17
2017-07-30T14:59:13.164Z,70.14
2017-07-30T15:01:40.997Z,70.25
2017-07-30T15:04:08.796Z,69.10
2017-07-30T15:06:37.095Z,69.55
2017-07-30T15:09:05.168Z,69.00
2017-07-30T15:11:33.004Z,66.94
2017-07-30T15:14:01.287Z,65.99
2017-07-30T15:16:29.050Z,66.53
2017-07-30T15:18:56.865Z,67.34
2017-07-30T15:21:24.671Z,66.21
2017-07-30T15:23:52.520Z,63.51
2017-07-30T15:26:20.277Z,66.29
2017-07-30T15:28:48.086Z,65.80
2017-07-30T15:31:16.041Z,65.03
2017-07-30T15:33:43.909Z,63.68
2017-07-30T15:36:11.731Z,63.50
2017-07-30T15:38:39.551Z,63.71
2017-07-30T15:41:07.370Z,61.23
2017-07-30T15:43:35.110Z,62.40
2017-07-30T15:46:02.981Z,63.04
2017-07-30T15:48:31.833Z,64.08
2017-07-30T15:51:00.020Z,63.42
2017-07-30T15:53:28.107Z,63.97
2017-07-30T15:55:56.048Z,63.94
2017-07-30T15:58:23.847Z,62.82
2017-07-30T16:00:51.611Z,63.15
2017-07-30T16:03:19.405Z,63.94
2017-07-30T16:05:47.179Z,65.32
2017-07-30T16:08:14.933Z,66.89
2017-07-30T16:10:42.712Z,68.88
2017-07-30T16:13:10.503Z,67.73
2017-07-30T16:15:38.217Z,67.08
2017-07-30T16:18:06.031Z,66.34
2017-07-30T16:20:33.754Z,67.85
2017-07-30T16:23:01.603Z,68.07
2017-07-30T16:25:29.438Z,67.83
2017-07-30T16:27:57.167Z,69.15
2017-07-30T16:30:24.946Z,68.91
2017-07-30T16:32:52.709Z,69.87
2017-07-30T16:35:20.432Z,69.20
2017-07-30T16:37:48.214Z,69.55
2017-07-30T16:40:16.078Z,70.16
2017-07-30T16:42:43.850Z,70.97
2017-07-30T16:45:11.685Z,71.51
2017-07-30T16:47:39.593Z,69.46
2017-07-30T16:50:07.340Z,71.18
2017-07-30T16:52:35.152Z,71.08
2017-07-30T16:55:03.191Z,71.24
2017-07-30T16:57:31.627Z,71.71
2017-07-30T16:59:59.457Z,72.01
2017-07-30T17:02:27.232Z,72.54
2017-07-30T17:04:55.144Z,72.89
2017-07-30T17:07:22.948Z,73.37
2017-07-30T17:09:50.732Z,73.36
2017-07-30T17:12:18.595Z,73.34
2017-07-30T17:14:46.484Z,73.22
2017-07-30T17:17:14.329Z,73.43
2017-07-30T17:19:42.085Z,74.63
2017-07-30T17:22:09.841Z,75.65
2017-07-30T17:24:37.632Z,75.11
2017-07-30T17:27:05.414Z,74.87
2017-07-30T17:29:33.242Z,75.14
2017-07-30T17:32:00.967Z,75.27
2017-07-30T17:34:28.718Z,75.94
2017-07-30T17:36:56.488Z,75.68
2017-07-30T17:39:24.408Z,75.29
2017-07-30T17:41:52.320Z,74.87
2017-07-30T17:44:20.154Z,74.82
2017-07-30T17:46:47.896Z,75.34
2017-07-30T17:49:15.690Z,75.91
2017-07-30T17:51:43.506Z,75.82
2017-07-30T17:54:11.247Z,75.41
2017-07-30T17:56:39.730Z,75.42
2017-07-30T17:59:07.554Z,75.64
2017-07-30T18:01:35.382Z,76.02
2017-07-30T18:04:03.146Z,75.82
2017-07-30T18:06:30.965Z,75.75
2017-07-30T18:08:58.742Z,76.28
2017-07-30T18:11:26.504Z,76.31
2017-07-30T18:13:54.310Z,76.93
2017-07-30T18:16:22.175Z,76.97
2017-07-30T18:18:52.047Z,77.47
2017-07-30T18:21:19.953Z,77.82
2017-07-30T18:23:47.963Z,78.03
2017-07-30T18:26:19.146Z,78.50
2017-07-30T18:28:46.916Z,78.95
2017-07-30T18:31:14.879Z,78.68
2017-07-30T18:33:42.805Z,78.82
2017-07-30T18:36:11.432Z,79.11
2017-07-30T18:38:39.344Z,78.54
2017-07-30T18:41:08.021Z,78.35
2017-07-30T18:43:35.751Z,77.95
2017-07-30T18:46:03.568Z,78.76
2017-07-30T18:48:31.315Z,79.12
2017-07-30T18:50:59.091Z,79.37
2017-07-30T18:53:28.006Z,78.67
2017-07-30T18:55:55.967Z,79.02
2017-07-30T18:58:23.772Z,79.77
2017-07-30T19:00:51.741Z,79.91
2017-07-30T19:03:19.630Z,80.07
2017-07-30T19:05:47.374Z,79.89
2017-07-30T19:08:16.336Z,80.46
2017-07-30T19:10:44.262Z,80.46
2017-07-30T19:13:12.106Z,80.27
2017-07-30T19:15:39.912Z,79.76
2017-07-30T19:18:07.717Z,79.46
2017-07-30T19:20:35.584Z,79.31
2017-07-30T19:23:03.702Z,79.77
2017-07-30T19:25:31.987Z,80.04
2017-07-30T19:27:59.996Z,80.59
2017-07-30T19:30:27.991Z,80.01
2017-07-30T19:32:55.822Z,80.37
2017-07-30T19:35:23.630Z,81.17
2017-07-30T19:37:51.533Z,81.29
2017-07-30T19:40:19.565Z,81.01
2017-07-30T19:42:47.448Z,80.86
2017-07-30T19:45:15.337Z,80.44
2017-07-30T19:47:43.373Z,81.00
2017-07-30T19:50:11.368Z,81.79
2017-07-30T19:52:39.214Z,82.25
2017-07-30T20:10:27.975Z,81.22
2017-07-30T20:12:55.762Z,81.10
2017-07-30T20:15:24.470Z,80.71
2017-07-30T20:17:53.257Z,80.44
2017-07-30T20:20:21.170Z,80.48
2017-07-30T20:31:11.821Z,81.15
2017-07-30T20:33:40.214Z,81.54
2017-07-30T20:36:08.288Z,82.04
2017-07-30T20:38:36.348Z,82.27
2017-07-30T20:41:04.392Z,82.06
2017-07-30T20:43:32.189Z,82.33
2017-07-30T20:46:00.099Z,81.92
2017-07-30T20:48:28.667Z,82.25
2017-07-30T20:50:57.659Z,81.67
2017-07-30T20:53:26.354Z,82.53
2017-07-30T20:55:55.344Z,82.36
2017-07-30T21:01:11.893Z,82.48
2017-07-30T21:03:39.911Z,83.42
2017-07-30T21:06:07.878Z,82.59
2017-07-30T21:08:35.746Z,82.63
2017-07-30T21:21:13.044Z,84.03
2017-07-30T21:23:40.847Z,84.90
2017-07-30T21:26:09.468Z,84.09
2017-07-30T21:28:37.280Z,84.05
2017-07-30T21:31:05.125Z,83.67
2017-07-30T21:33:32.876Z,83.44
2017-07-30T21:41:11.269Z,83.13
2017-07-30T21:43:39.017Z,83.62
2017-07-30T21:46:07.952Z,83.62
2017-07-30T22:01:11.296Z,83.72
2017-07-30T22:03:39.126Z,83.89
2017-07-30T22:06:06.935Z,84.30
2017-07-30T22:08:34.700Z,83.42
2017-07-30T22:11:02.399Z,83.48
2017-07-30T22:13:31.046Z,83.58
2017-07-30T22:15:59.720Z,83.41
2017-07-30T22:21:18.644Z,85.18
2017-07-30T22:23:46.436Z,85.99
2017-07-30T22:26:14.260Z,86.18
2017-07-30T22:28:42.032Z,85.33
2017-07-30T22:31:09.804Z,85.46
2017-07-30T22:33:37.539Z,85.43
2017-07-30T22:36:05.646Z,85.47
2017-07-30T22:38:33.755Z,86.06
2017-07-30T22:41:01.529Z,85.72
2017-07-30T22:43:29.298Z,85.88
2017-07-30T22:45:57.746Z,86.83
2017-07-30T22:48:26.441Z,86.13
2017-07-30T22:50:54.308Z,86.62
2017-07-30T22:53:22.097Z,86.91
2017-07-30T22:55:49.853Z,85.88
2017-07-30T22:58:17.615Z,85.38
2017-07-30T23:00:45.506Z,85.56
2017-07-30T23:03:13.301Z,85.42
2017-07-30T23:05:41.071Z,86.10
2017-07-30T23:08:08.783Z,86.12
2017-07-30T23:10:36.647Z,86.03
2017-07-30T23:13:04.905Z,85.79
2017-07-30T23:15:32.654Z,85.70
2017-07-30T23:18:00.616Z,85.47
2017-07-30T23:20:28.486Z,86.31
2017-07-30T23:22:56.577Z,86.13
2017-07-30T23:25:24.749Z,85.83
2017-07-30T23:27:52.459Z,85.60
2017-07-30T23:30:20.244Z,86.10
2017-07-30T23:32:47.956Z,85.45
2017-07-30T23:35:15.714Z,85.64
2017-07-30T23:37:43.522Z,85.76
2017-07-30T23:40:12.262Z,85.18
2017-07-30T23:42:40.030Z,85.69
2017-07-30T23:45:07.915Z,86.10
2017-07-30T23:47:35.662Z,85.92
2017-07-30T23:50:04.547Z,85.74
2017-07-30T23:52:32.539Z,86.38
2017-07-30T23:55:00.260Z,86.31
2017-07-30T23:57:28.005Z,86.21
2017-07-30T23:59:55.748Z,86.00
